createdAt,value
2022-10-23T00:00:02.173Z,11.67
2022-10-23T00:15:01.847Z,11.66
2022-10-23T00:30:02.535Z,11.62
2022-10-23T00:45:02.233Z,11.56
2022-10-23T01:00:01.867Z,11.48
2022-10-23T01:15:02.495Z,11.51
2022-10-23T01:30:02.173Z,11.49
2022-10-23T01:45:01.824Z,11.44
2022-10-23T02:00:02.491Z,11.36
2022-10-23T02:15:02.121Z,11.3
2022-10-23T02:30:01.823Z,11.2
2022-10-23T02:45:02.453Z,11.1
2022-10-23T03:00:02.090Z,11.03
2022-10-23T03:15:01.789Z,10.94
2022-10-23T03:30:02.477Z,10.87
2022-10-23T03:45:02.154Z,10.7
2022-10-23T04:00:01.789Z,10.65
2022-10-23T04:15:02.457Z,10.51
2022-10-23T04:30:01.685Z,10.44
2022-10-23T04:45:02.318Z,10.41
2022-10-23T05:00:01.981Z,10.35
2022-10-23T05:15:01.710Z,10.27
2022-10-23T05:30:02.414Z,10.21
2022-10-23T05:45:02.023Z,10.13
2022-10-23T06:00:01.665Z,10.06
2022-10-23T06:15:02.279Z,10.06
2022-10-23T06:30:02.001Z,10.08
2022-10-23T06:45:04.859Z,10.1
2022-10-23T07:00:01.921Z,10.16
2022-10-23T07:15:02.521Z,10.24
2022-10-23T07:30:02.229Z,10.33
2022-10-23T07:45:01.949Z,10.47
2022-10-23T08:00:01.633Z,10.62
2022-10-23T08:15:02.335Z,10.8
2022-10-23T08:30:02.036Z,10.99
2022-10-23T08:45:01.705Z,11.2
2022-10-23T09:00:02.341Z,11.45
2022-10-23T09:15:02.056Z,11.69
2022-10-23T09:30:01.748Z,11.96
2022-10-23T09:45:02.380Z,12.22
2022-10-23T10:00:02.046Z,12.44
2022-10-23T10:15:01.717Z,12.7
2022-10-23T10:30:02.456Z,12.98
2022-10-23T10:45:02.122Z,13.25
2022-10-23T11:00:01.751Z,13.49
2022-10-23T11:15:02.392Z,13.85
2022-10-23T11:30:02.115Z,14.15
2022-10-23T11:45:01.887Z,14.36
2022-10-23T12:00:02.498Z,14.53
2022-10-23T12:15:02.106Z,14.73
2022-10-23T12:30:01.756Z,14.96
2022-10-23T12:45:02.399Z,15.19
2022-10-23T13:00:02.069Z,15.38
2022-10-23T13:15:01.739Z,15.66
2022-10-23T13:30:03.994Z,15.82
2022-10-23T13:45:01.820Z,16.09
2022-10-23T14:00:02.422Z,16.1
2022-10-23T14:15:02.139Z,16.22
2022-10-23T14:30:01.790Z,16.55
2022-10-23T14:45:02.460Z,16.68
2022-10-23T15:00:02.116Z,16.53
2022-10-23T15:15:01.800Z,16.48
2022-10-23T15:30:02.493Z,16.39
2022-10-23T15:45:02.198Z,16.33
2022-10-23T16:00:01.856Z,16.22
2022-10-23T16:15:02.494Z,16.13
2022-10-23T16:30:02.181Z,15.98
2022-10-23T16:45:01.865Z,15.89
2022-10-23T17:00:02.550Z,15.81
2022-10-23T17:15:02.229Z,15.83
2022-10-23T17:30:01.908Z,15.9
2022-10-23T17:45:02.544Z,15.97
2022-10-23T18:00:02.175Z,16.01
2022-10-23T18:15:01.870Z,16.17
2022-10-23T18:30:02.566Z,16.08
2022-10-23T18:45:02.217Z,16.5
2022-10-23T19:00:01.864Z,16.02
2022-10-23T19:15:02.478Z,15.93
2022-10-23T19:30:02.142Z,15.86
2022-10-23T19:45:01.842Z,15.73
2022-10-23T20:00:02.502Z,15.72
2022-10-23T20:15:02.155Z,15.66
2022-10-23T20:30:01.826Z,15.55
2022-10-23T20:45:02.500Z,15.48
2022-10-23T21:00:02.177Z,15.48
2022-10-23T21:15:01.958Z,15.41
2022-10-23T21:30:01.694Z,15.4
2022-10-23T21:45:02.346Z,15.39
2022-10-23T22:00:02.090Z,15.43
2022-10-23T22:15:01.809Z,15.39
2022-10-23T22:30:02.471Z,15.39
2022-10-23T22:45:02.117Z,15.38
2022-10-23T23:00:01.833Z,15.41
2022-10-23T23:15:02.456Z,15.39
2022-10-23T23:30:02.202Z,15.36
2022-10-23T23:45:13.572Z,15.32
